Česky Dansk Deutsch English Español Suomi Français Magyar Italiano Nederlands norsk Polski Português svenska Türkçe

 

Het Weer

El Tor (Egypt)

14:00, 21 augustus 2016 (GMT)

NWNNE
WE
SWSSE
Home            
El Tor Hurguada Sharm El Sheikhintl Asyut Cairo Airport Taba Eilat Aqaba Airport Luxor Ovda El Arish Port Said Ma'An Tabuk Beer-Sheva Alexandria / Nouzha Alexandria Borg El Arab Wejh Ben-Gurion International Airport Asswan Jerusalem Airport Tel Aviv / Sde-Dov Airport Queen Alia Airport

Om een weerknop op uw website of weblog te plaatsen, copieer onderstaande code en plak die in uw pagina. In het eerste vakje staat HTML-code, in het tweede vakje UBB-code.


Add to Google

Details

Wind speed:4 bf, 14 kn, 7.2 m/s, 16.1 miles/h, 25.9 km/h
Wind direction:NW, 310°
Visibility:Greater than 10000 m, 10 km, 32800 ft, 6.2 miles
Clouds:CAVOC
Temperature:33°C, 91°F
Gefühlte Temperatur:37°C, 98°F
Dew-point:22°C, 72°F
Atmospheric pressure:1006 hPa, 754.6 mmHg, 29.71 inHg, 0.993 atm
Relative humidity:52.6 %
METAR:HETR 211400Z 31014KT CAVOK 33/22 Q1006

Snelkoppelingen

Actuele weersinformatie van de hele wereld. Voeg locaties toe met het plus (+) symbool. Deze snelkoppelingen kunnen worden toegevoegd aan Google.

Lid van de Technetium groep

website free tracking
StatCounter NetStat W3C Validator

17-12-2017 04:46:59
astro.technetium.be money.technetium.be phote.technetium.be tafeltennistafel.technetium.be www.ligfiets.net